Time;durP1;ratioP1;P1;durP2;ratioP2;P2;SDS_P1;SDS_P2;PMS_P1;PMS_P2;Temp;Humidity;BMP_temperature;BMP_pressure;BME280_temperature;BME280_humidity;BME280_pressure;Samples;Min_cycle;Max_cycle;Signal;HPM_P1;HPM_P2
2021/06/06 00:01:50;;;;;;;29.02;12.50;;;15.90;99.90;;;;;;5086106;28;21883;-75
2021/06/06 00:04:18;;;;;;;21.88;11.93;;;15.90;99.90;;;;;;5084264;28;20644;-74
2021/06/06 00:06:45;;;;;;;27.05;12.18;;;15.90;99.90;;;;;;5083652;28;20568;-75
2021/06/06 00:09:15;;;;;;;26.15;12.43;;;15.90;99.90;;;;;;5085318;28;20615;-75
2021/06/06 00:11:44;;;;;;;23.17;12.13;;;15.90;99.90;;;;;;5084627;28;20728;-75
2021/06/06 00:14:12;;;;;;;25.67;13.20;;;15.90;99.90;;;;;;5084322;28;20202;-74
2021/06/06 00:16:45;;;;;;;33.35;12.43;;;15.90;99.90;;;;;;5085612;28;20727;-75
2021/06/06 00:19:13;;;;;;;24.92;12.55;;;15.90;99.90;;;;;;5085589;28;20626;-75
2021/06/06 00:21:41;;;;;;;25.88;13.02;;;15.80;99.90;;;;;;5087242;28;20757;-75
2021/06/06 00:24:09;;;;;;;26.45;13.20;;;15.90;99.90;;;;;;5085017;28;20194;-75
2021/06/06 00:26:36;;;;;;;24.33;12.25;;;15.80;99.90;;;;;;5084878;28;20212;-75
2021/06/06 00:29:03;;;;;;;22.55;11.77;;;15.80;99.90;;;;;;5085061;28;20241;-75
2021/06/06 00:31:29;;;;;;;25.60;11.70;;;15.80;99.90;;;;;;5084437;28;20205;-76
2021/06/06 00:33:57;;;;;;;19.83;11.27;;;15.80;99.90;;;;;;5082942;28;20581;-75
2021/06/06 00:36:24;;;;;;;27.08;11.20;;;15.80;99.90;;;;;;5085611;28;20203;-75
2021/06/06 00:38:51;;;;;;;16.83;9.60;;;15.80;99.90;;;;;;5083209;28;20297;-75
2021/06/06 00:41:22;;;;;;;17.40;9.45;;;15.80;99.90;;;;;;5087148;28;20188;-74
2021/06/06 00:43:53;;;;;;;18.02;8.30;;;15.80;99.90;;;;;;5082981;28;20217;-75
2021/06/06 00:46:22;;;;;;;17.00;7.53;;;15.80;99.90;;;;;;5085946;28;20206;-75
2021/06/06 00:48:49;;;;;;;20.20;7.50;;;15.80;99.90;;;;;;5083468;28;20201;-75
2021/06/06 00:51:20;;;;;;;15.75;7.40;;;15.80;99.90;;;;;;5086665;28;20213;-75
2021/06/06 00:53:50;;;;;;;18.23;7.38;;;15.70;99.90;;;;;;5082333;28;20576;-75
2021/06/06 00:56:22;;;;;;;19.13;7.22;;;15.70;99.90;;;;;;5085896;28;20198;-76
2021/06/06 00:58:51;;;;;;;15.98;7.05;;;15.70;99.90;;;;;;5081850;28;20567;-75
2021/06/06 01:01:23;;;;;;;19.13;6.90;;;15.70;99.90;;;;;;5086223;28;20674;-76
2021/06/06 01:03:53;;;;;;;16.65;7.07;;;15.70;99.90;;;;;;5081843;28;20235;-75
2021/06/06 01:06:25;;;;;;;22.52;7.47;;;15.70;99.90;;;;;;5086306;28;20550;-75
2021/06/06 01:08:53;;;;;;;19.60;6.30;;;15.70;99.90;;;;;;5082681;28;20202;-75
2021/06/06 01:11:29;;;;;;;16.58;6.05;;;15.70;99.90;;;;;;5085913;28;20248;-74
2021/06/06 01:14:00;;;;;;;11.00;5.80;;;15.70;99.90;;;;;;5083715;28;20201;-75
2021/06/06 01:16:34;;;;;;;17.50;5.80;;;15.70;99.90;;;;;;5084203;28;20661;-74
2021/06/06 01:19:07;;;;;;;13.23;6.00;;;15.70;99.90;;;;;;5083061;28;20221;-75
2021/06/06 01:21:49;;;;;;;11.60;5.70;;;15.70;99.90;;;;;;5085154;28;20201;-75
2021/06/06 01:24:28;;;;;;;13.90;5.50;;;15.70;99.90;;;;;;5084069;28;20689;-74
2021/06/06 01:26:58;;;;;;;16.52;5.65;;;15.70;99.90;;;;;;5085137;28;20291;-74
2021/06/06 01:29:41;;;;;;;12.52;5.90;;;15.70;99.90;;;;;;5119444;27;20249;-75
2021/06/06 01:32:16;;;;;;;14.00;5.90;;;15.70;99.90;;;;;;5104435;28;20212;-74
2021/06/06 01:34:46;;;;;;;13.73;6.35;;;15.70;99.90;;;;;;5101893;28;20853;-74
2021/06/06 01:37:17;;;;;;;11.68;6.00;;;15.70;99.90;;;;;;5104202;28;20311;-74
2021/06/06 01:39:48;;;;;;;12.68;6.10;;;15.70;99.90;;;;;;5103084;28;20276;-74
2021/06/06 01:42:24;;;;;;;12.38;5.28;;;15.70;99.90;;;;;;5104323;28;20211;-75
2021/06/06 01:44:55;;;;;;;8.43;5.70;;;15.70;99.90;;;;;;5102312;28;20312;-75
2021/06/06 01:47:27;;;;;;;14.82;5.13;;;15.70;99.90;;;;;;5103256;28;20189;-75
2021/06/06 01:49:58;;;;;;;12.63;4.70;;;15.60;99.90;;;;;;5101722;28;20213;-75
2021/06/06 01:52:32;;;;;;;8.75;4.80;;;15.60;99.90;;;;;;5101861;28;20287;-74
2021/06/06 01:55:09;;;;;;;11.82;4.40;;;15.60;99.90;;;;;;5102292;28;20212;-75
2021/06/06 01:57:43;;;;;;;9.35;4.95;;;15.60;99.90;;;;;;5136530;27;20554;-75
2021/06/06 02:00:15;;;;;;;8.93;4.55;;;15.60;99.90;;;;;;5103002;28;20285;-76
2021/06/06 02:02:45;;;;;;;14.00;5.18;;;15.50;99.90;;;;;;5105796;28;20221;-75
2021/06/06 02:05:18;;;;;;;11.93;5.55;;;15.50;99.90;;;;;;5103383;28;20201;-74
2021/06/06 02:07:50;;;;;;;12.50;4.50;;;15.50;99.90;;;;;;5106645;28;20569;-75
2021/06/06 02:10:25;;;;;;;10.82;3.90;;;15.50;99.90;;;;;;5102440;28;20300;-74
2021/06/06 02:13:01;;;;;;;8.75;4.47;;;15.40;99.90;;;;;;5103669;28;20212;-75
2021/06/06 02:15:31;;;;;;;8.40;4.50;;;15.40;99.90;;;;;;5102902;28;20205;-75
2021/06/06 02:18:10;;;;;;;7.18;4.00;;;15.40;99.90;;;;;;5104582;28;20201;-74
2021/06/06 02:20:40;;;;;;;13.45;4.85;;;15.40;99.90;;;;;;5104509;28;20748;-74
2021/06/06 02:23:08;;;;;;;8.88;4.28;;;15.40;99.90;;;;;;5104258;28;20663;-73
2021/06/06 02:25:38;;;;;;;9.27;4.20;;;15.40;99.90;;;;;;5101711;28;20205;-74
2021/06/06 02:28:15;;;;;;;9.48;4.63;;;15.40;99.90;;;;;;5102318;28;20222;-76
2021/06/06 02:30:51;;;;;;;9.15;4.63;;;15.30;99.90;;;;;;5131207;27;20289;-74
2021/06/06 02:33:26;;;;;;;11.45;4.72;;;15.40;99.90;;;;;;5104021;28;20296;-75
2021/06/06 02:36:04;;;;;;;10.93;4.72;;;15.40;99.90;;;;;;5108767;28;20608;-74
2021/06/06 02:38:36;;;;;;;12.98;5.47;;;15.40;99.90;;;;;;5109137;28;20201;-75
2021/06/06 02:41:12;;;;;;;9.65;5.10;;;15.30;99.90;;;;;;5106396;28;20252;-75
2021/06/06 02:43:55;;;;;;;14.25;5.47;;;15.30;99.90;;;;;;5104770;28;20273;-75
2021/06/06 02:46:23;;;;;;;13.32;5.45;;;15.30;99.90;;;;;;5106910;28;20250;-74
2021/06/06 02:48:59;;;;;;;14.73;5.97;;;15.30;99.90;;;;;;5107230;28;20217;-74
2021/06/06 02:51:34;;;;;;;12.85;5.88;;;15.30;99.90;;;;;;5110876;28;20204;-75
2021/06/06 02:54:05;;;;;;;13.70;5.95;;;15.30;99.90;;;;;;5105998;28;20602;-75
2021/06/06 02:56:45;;;;;;;11.70;5.85;;;15.30;99.90;;;;;;5107873;28;20217;-75
2021/06/06 02:59:16;;;;;;;10.27;5.85;;;15.30;99.90;;;;;;5105168;28;20220;-75
2021/06/06 03:01:46;;;;;;;10.65;6.00;;;15.30;99.90;;;;;;5109679;28;20545;-74
2021/06/06 03:04:21;;;;;;;10.82;6.20;;;15.30;99.90;;;;;;5103558;27;20254;-75
2021/06/06 03:06:55;;;;;;;10.73;6.18;;;15.30;99.90;;;;;;5107606;28;20284;-74
2021/06/06 03:09:22;;;;;;;12.75;6.43;;;15.30;99.90;;;;;;5106153;28;20205;-76
2021/06/06 03:12:02;;;;;;;13.48;6.38;;;15.30;99.90;;;;;;5109011;28;20241;-74
2021/06/06 03:14:35;;;;;;;10.98;6.20;;;15.30;99.90;;;;;;5106406;28;20271;-75
2021/06/06 03:17:12;;;;;;;15.25;6.47;;;15.30;99.90;;;;;;5108230;28;20220;-76
2021/06/06 03:19:42;;;;;;;13.45;7.15;;;15.30;99.90;;;;;;5108174;28;20197;-74
2021/06/06 03:22:12;;;;;;;11.98;6.95;;;15.30;99.90;;;;;;5107077;28;20323;-74
2021/06/06 03:24:46;;;;;;;11.18;6.72;;;15.30;99.90;;;;;;5107202;28;20617;-73
2021/06/06 03:27:18;;;;;;;12.82;7.05;;;15.30;99.90;;;;;;5103255;28;20206;-75
2021/06/06 03:29:54;;;;;;;14.63;6.70;;;15.30;99.90;;;;;;5104081;28;20304;-74
2021/06/06 03:32:25;;;;;;;12.02;7.32;;;15.30;99.90;;;;;;5104217;28;20205;-76
2021/06/06 03:34:53;;;;;;;16.70;8.20;;;15.20;99.90;;;;;;5102052;28;20201;-74
2021/06/06 03:37:20;;;;;;;11.23;7.15;;;15.30;99.90;;;;;;5102553;28;20197;-74
2021/06/06 03:40:16;;;;;;;16.20;8.00;;;15.20;99.90;;;;;;5106181;28;20211;-74
2021/06/06 03:42:52;;;;;;;12.25;7.60;;;15.20;99.90;;;;;;5103564;28;20213;-75
2021/06/06 03:45:19;;;;;;;18.77;8.10;;;15.20;99.90;;;;;;5102602;28;20232;-75
2021/06/06 03:47:46;;;;;;;16.85;8.40;;;15.20;99.90;;;;;;5103439;28;20330;-74
2021/06/06 03:50:16;;;;;;;13.18;7.97;;;15.20;99.90;;;;;;5106260;28;20231;-75
2021/06/06 03:52:47;;;;;;;13.90;8.85;;;15.20;99.90;;;;;;5102708;28;20220;-74
2021/06/06 03:55:18;;;;;;;14.05;8.70;;;15.20;99.90;;;;;;5105818;28;20270;-75
2021/06/06 03:57:50;;;;;;;16.00;8.77;;;15.20;99.90;;;;;;5101391;28;20221;-74
2021/06/06 04:00:24;;;;;;;13.35;8.70;;;15.20;99.90;;;;;;5105638;28;20267;-75
2021/06/06 04:02:57;;;;;;;12.20;8.57;;;15.20;99.90;;;;;;5102893;28;20193;-75
2021/06/06 04:05:28;;;;;;;17.65;7.93;;;15.20;99.90;;;;;;5104225;28;20699;-75
2021/06/06 04:07:55;;;;;;;11.18;7.85;;;15.20;99.90;;;;;;5105016;28;20202;-75
2021/06/06 04:10:25;;;;;;;10.85;7.60;;;15.10;99.90;;;;;;5106997;28;20219;-74
2021/06/06 04:12:53;;;;;;;13.27;7.40;;;15.10;99.90;;;;;;5101928;28;20296;-74
2021/06/06 04:15:23;;;;;;;14.77;8.13;;;15.10;99.90;;;;;;5107210;28;20296;-74
2021/06/06 04:17:51;;;;;;;11.57;8.18;;;15.10;99.90;;;;;;5102138;28;20201;-75
2021/06/06 04:20:18;;;;;;;13.75;8.60;;;15.10;99.90;;;;;;5107574;28;20189;-75
2021/06/06 04:22:46;;;;;;;16.27;8.48;;;15.10;99.90;;;;;;5105401;28;20197;-74
2021/06/06 04:25:21;;;;;;;14.73;9.10;;;15.10;99.90;;;;;;5106432;28;20213;-73
2021/06/06 04:27:48;;;;;;;14.57;8.95;;;15.10;99.90;;;;;;5104983;28;20281;-74
2021/06/06 04:30:17;;;;;;;11.75;8.30;;;15.10;99.90;;;;;;5106238;28;20217;-74
2021/06/06 04:32:45;;;;;;;13.02;8.18;;;15.10;99.90;;;;;;5102585;28;20201;-75
2021/06/06 04:35:14;;;;;;;15.20;9.82;;;15.10;99.90;;;;;;5118811;27;20262;-73
2021/06/06 04:37:42;;;;;;;14.68;9.18;;;15.10;99.90;;;;;;5106797;28;20654;-76
2021/06/06 04:40:11;;;;;;;19.08;8.50;;;15.10;99.90;;;;;;5103751;28;20196;-74
2021/06/06 04:42:40;;;;;;;12.02;7.90;;;15.10;99.90;;;;;;5102656;28;20212;-73
2021/06/06 04:45:11;;;;;;;12.52;7.70;;;15.10;99.90;;;;;;5100038;28;20213;-74
2021/06/06 04:47:48;;;;;;;21.08;8.10;;;15.10;99.90;;;;;;5101520;28;20209;-74
2021/06/06 04:50:18;;;;;;;15.85;8.50;;;15.10;99.90;;;;;;5104924;28;20213;-74
2021/06/06 04:52:47;;;;;;;13.48;7.80;;;15.10;99.90;;;;;;5102418;28;20710;-75
2021/06/06 04:55:17;;;;;;;13.20;8.40;;;15.20;99.90;;;;;;5098961;28;20201;-74
2021/06/06 04:57:44;;;;;;;13.20;7.88;;;15.20;99.90;;;;;;5104800;28;20201;-75
2021/06/06 05:00:17;;;;;;;12.20;7.50;;;15.20;99.90;;;;;;5105597;28;20189;-74
2021/06/06 05:02:46;;;;;;;16.48;8.05;;;15.20;99.90;;;;;;5105424;28;20258;-73
2021/06/06 05:05:19;;;;;;;12.48;7.55;;;15.30;99.90;;;;;;5106120;28;20677;-75
2021/06/06 05:07:51;;;;;;;11.07;7.30;;;15.30;99.90;;;;;;5103315;28;20197;-77
2021/06/06 05:10:20;;;;;;;11.95;8.55;;;15.30;99.90;;;;;;5136235;27;20586;-74
2021/06/06 05:12:49;;;;;;;13.13;6.88;;;15.30;99.90;;;;;;5103502;28;20315;-74
2021/06/06 05:15:17;;;;;;;15.88;7.30;;;15.30;99.90;;;;;;5105843;28;20305;-75
2021/06/06 05:17:45;;;;;;;12.40;6.65;;;15.30;99.90;;;;;;5105952;28;20200;-74
2021/06/06 05:20:14;;;;;;;12.98;6.50;;;15.30;99.90;;;;;;5100828;28;20270;-74
2021/06/06 05:22:44;;;;;;;10.07;6.60;;;15.30;99.90;;;;;;5103473;28;20207;-74
2021/06/06 05:25:14;;;;;;;11.43;6.68;;;15.30;99.90;;;;;;5099734;28;20237;-74
2021/06/06 05:27:42;;;;;;;11.77;6.25;;;15.30;99.90;;;;;;5099352;28;20229;-75
2021/06/06 05:30:13;;;;;;;9.75;5.25;;;15.40;99.90;;;;;;5103506;28;20244;-74
2021/06/06 05:32:39;;;;;;;7.60;4.75;;;15.30;99.90;;;;;;5102851;28;20215;-76
2021/06/06 05:35:08;;;;;;;9.20;4.30;;;15.40;99.90;;;;;;5100595;28;20597;-74
2021/06/06 05:37:35;;;;;;;8.25;4.18;;;15.40;99.90;;;;;;5130634;27;20206;-75
2021/06/06 05:40:04;;;;;;;6.55;4.13;;;15.40;99.90;;;;;;5106034;28;20192;-75
2021/06/06 05:42:30;;;;;;;6.07;4.90;;;15.40;99.90;;;;;;5098555;28;20273;-75
2021/06/06 05:44:57;;;;;;;6.50;3.42;;;15.40;99.90;;;;;;5106709;28;20663;-75
2021/06/06 05:47:23;;;;;;;5.22;3.78;;;15.40;99.90;;;;;;5103872;28;20205;-74
2021/06/06 05:49:50;;;;;;;6.00;3.78;;;15.40;99.90;;;;;;5101663;28;20205;-75
2021/06/06 05:52:23;;;;;;;8.27;3.70;;;15.50;99.90;;;;;;5102369;28;20267;-75
2021/06/06 05:54:50;;;;;;;6.97;3.67;;;15.50;99.90;;;;;;5103820;28;20197;-76
2021/06/06 05:57:17;;;;;;;6.50;3.67;;;15.50;99.90;;;;;;5100505;28;20215;-77
2021/06/06 05:59:44;;;;;;;5.57;3.20;;;15.50;99.90;;;;;;5104639;28;20189;-75
2021/06/06 06:02:10;;;;;;;7.03;3.58;;;15.50;99.90;;;;;;5104928;28;20201;-77
2021/06/06 06:04:37;;;;;;;6.00;3.47;;;15.60;99.90;;;;;;5101097;27;20189;-75
2021/06/06 06:07:04;;;;;;;5.88;3.28;;;15.60;99.90;;;;;;5107923;28;20444;-76
2021/06/06 06:09:30;;;;;;;6.35;3.10;;;16.00;99.90;;;;;;5102934;28;20434;-75
2021/06/06 06:11:56;;;;;;;6.18;3.15;;;16.30;97.90;;;;;;5104355;28;21865;-76
2021/06/06 06:14:24;;;;;;;6.30;3.30;;;16.20;98.40;;;;;;5108583;28;20419;-77
2021/06/06 06:16:51;;;;;;;4.88;3.10;;;16.40;97.00;;;;;;5103904;28;21205;-75
2021/06/06 06:19:17;;;;;;;5.05;2.70;;;16.60;95.60;;;;;;5106103;28;20424;-74
2021/06/06 06:21:44;;;;;;;4.65;3.00;;;16.80;94.70;;;;;;5105169;28;20415;-73
2021/06/06 06:24:11;;;;;;;6.25;3.30;;;16.90;94.40;;;;;;5102156;28;20424;-77
2021/06/06 06:26:38;;;;;;;4.93;3.45;;;16.90;94.00;;;;;;5103703;28;20419;-78
2021/06/06 06:29:26;;;;;;;6.50;3.80;;;17.00;93.60;;;;;;5105287;28;20459;-76
2021/06/06 06:32:00;;;;;;;9.95;3.88;;;17.10;93.60;;;;;;5104272;28;20939;-78
2021/06/06 06:34:39;;;;;;;8.32;4.10;;;16.80;94.30;;;;;;5106647;28;20567;-76
2021/06/06 06:37:08;;;;;;;8.40;4.03;;;16.60;94.90;;;;;;5105306;28;20851;-76
2021/06/06 06:39:35;;;;;;;8.02;4.53;;;16.50;95.20;;;;;;5107660;28;20208;-76
2021/06/06 06:42:02;;;;;;;9.00;4.28;;;16.40;95.40;;;;;;5101703;28;20702;-77
2021/06/06 06:44:30;;;;;;;10.70;5.35;;;16.40;95.60;;;;;;5108587;28;20205;-77
2021/06/06 06:47:05;;;;;;;10.27;4.68;;;16.30;95.80;;;;;;5104869;28;20208;-77
2021/06/06 06:49:32;;;;;;;7.25;4.40;;;16.20;95.90;;;;;;5106952;28;20250;-78
2021/06/06 06:51:58;;;;;;;9.07;5.28;;;16.30;96.10;;;;;;5105735;28;20210;-79
2021/06/06 06:54:25;;;;;;;8.23;4.78;;;16.20;96.20;;;;;;5105524;28;20212;-77
2021/06/06 06:56:52;;;;;;;9.63;5.45;;;16.20;96.40;;;;;;5105095;28;20216;-77
2021/06/06 06:59:18;;;;;;;10.40;6.10;;;16.20;96.50;;;;;;5102899;28;20201;-77
2021/06/06 07:01:46;;;;;;;12.18;5.20;;;16.20;96.60;;;;;;5102430;28;20209;-77
2021/06/06 07:04:12;;;;;;;16.27;7.30;;;16.20;96.70;;;;;;5136569;27;20209;-77
2021/06/06 07:06:38;;;;;;;10.80;6.10;;;16.20;96.80;;;;;;5106721;28;20205;-76
2021/06/06 07:09:05;;;;;;;13.52;6.20;;;16.20;97.00;;;;;;5106274;28;20649;-78
2021/06/06 07:11:31;;;;;;;14.48;5.95;;;16.20;97.10;;;;;;5107408;28;20590;-76
2021/06/06 07:13:58;;;;;;;13.57;5.80;;;16.20;97.10;;;;;;5102768;28;20201;-75
2021/06/06 07:16:25;;;;;;;8.73;5.35;;;16.20;97.20;;;;;;5103953;28;20198;-77
2021/06/06 07:18:53;;;;;;;11.88;5.47;;;16.30;97.30;;;;;;5106503;28;20193;-77
2021/06/06 07:21:22;;;;;;;11.38;4.85;;;16.30;97.30;;;;;;5101731;27;20665;-78
2021/06/06 07:23:49;;;;;;;10.90;5.47;;;16.30;97.40;;;;;;5098049;27;20197;-75
2021/06/06 07:26:19;;;;;;;10.60;6.10;;;16.30;97.40;;;;;;5103455;27;20205;-77
2021/06/06 07:28:46;;;;;;;11.15;5.50;;;16.40;97.50;;;;;;5102136;27;20236;-77
2021/06/06 07:31:13;;;;;;;10.60;6.22;;;16.40;97.50;;;;;;5105652;28;20742;-74
2021/06/06 07:33:42;;;;;;;10.45;5.65;;;16.40;97.40;;;;;;5102910;28;20201;-76
2021/06/06 07:36:16;;;;;;;13.20;5.60;;;16.40;97.30;;;;;;5100654;27;20210;-77
2021/06/06 07:38:43;;;;;;;12.90;6.00;;;16.50;97.30;;;;;;5103609;27;20193;-76
2021/06/06 07:41:10;;;;;;;8.75;5.10;;;16.50;97.20;;;;;;5108496;27;20209;-77
2021/06/06 07:43:37;;;;;;;12.50;6.00;;;16.50;97.00;;;;;;5100911;27;20223;-75
2021/06/06 07:46:05;;;;;;;11.80;5.45;;;16.60;96.90;;;;;;5105086;27;20205;-77
2021/06/06 07:48:31;;;;;;;9.93;5.25;;;16.60;96.80;;;;;;5102710;28;20200;-75
2021/06/06 07:50:58;;;;;;;14.77;5.65;;;16.60;96.70;;;;;;5106770;27;20259;-75
2021/06/06 07:53:28;;;;;;;13.30;5.70;;;16.60;96.60;;;;;;5104152;28;20201;-77
2021/06/06 07:55:56;;;;;;;10.07;5.00;;;16.60;96.50;;;;;;5105041;27;20193;-76
2021/06/06 07:58:25;;;;;;;13.32;5.32;;;16.70;96.40;;;;;;5102560;27;20206;-75
2021/06/06 08:00:52;;;;;;;10.45;5.10;;;16.70;96.30;;;;;;5104853;28;20201;-76
2021/06/06 08:03:19;;;;;;;10.68;5.22;;;16.70;96.20;;;;;;5105993;28;20201;-74
2021/06/06 08:05:46;;;;;;;10.13;5.10;;;16.80;96.10;;;;;;5106858;28;20209;-73
2021/06/06 08:08:13;;;;;;;11.20;5.20;;;16.80;96.00;;;;;;5102250;28;20216;-74
2021/06/06 08:10:45;;;;;;;10.18;5.28;;;16.90;95.90;;;;;;5105108;28;20220;-73
2021/06/06 08:13:12;;;;;;;10.50;4.82;;;16.80;95.80;;;;;;5102986;27;20201;-74
2021/06/06 08:15:40;;;;;;;11.82;4.85;;;16.90;95.70;;;;;;5102304;28;20270;-76
2021/06/06 08:18:08;;;;;;;9.48;4.63;;;16.90;95.50;;;;;;5104046;28;20212;-74
2021/06/06 08:20:39;;;;;;;9.57;4.90;;;16.90;95.40;;;;;;5106682;28;20193;-75
2021/06/06 08:23:07;;;;;;;11.27;5.05;;;17.00;95.30;;;;;;5108019;28;20243;-74
2021/06/06 08:25:34;;;;;;;12.48;4.88;;;16.90;95.20;;;;;;5103684;27;20215;-74
2021/06/06 08:28:02;;;;;;;11.98;4.40;;;17.00;95.20;;;;;;5099897;28;20297;-73
2021/06/06 08:30:33;;;;;;;9.55;4.88;;;17.10;95.10;;;;;;5101026;28;20834;-73
2021/06/06 08:33:00;;;;;;;9.70;4.13;;;17.10;95.00;;;;;;5101244;27;20216;-73
2021/06/06 08:35:26;;;;;;;6.93;3.78;;;17.10;94.80;;;;;;5102867;28;20220;-73
2021/06/06 08:37:53;;;;;;;6.35;3.15;;;17.20;94.70;;;;;;5101612;28;20213;-71
2021/06/06 08:40:27;;;;;;;8.68;3.28;;;17.20;94.30;;;;;;5101313;28;20197;-74
2021/06/06 08:42:54;;;;;;;6.05;3.30;;;17.30;93.90;;;;;;5103929;27;20196;-71
2021/06/06 08:45:30;;;;;;;7.30;4.32;;;17.30;93.30;;;;;;5106173;28;20212;-73
2021/06/06 08:47:58;;;;;;;9.95;3.25;;;17.40;92.50;;;;;;5101158;28;20443;-74
2021/06/06 08:50:28;;;;;;;5.82;2.53;;;17.80;87.90;;;;;;5102314;28;20427;-72
2021/06/06 08:53:04;;;;;;;9.40;2.80;;;18.20;85.80;;;;;;5101887;28;20756;-75
2021/06/06 08:55:38;;;;;;;6.80;2.70;;;18.40;84.30;;;;;;5103018;27;20514;-74
2021/06/06 08:58:18;;;;;;;6.90;3.00;;;18.60;83.10;;;;;;5100553;27;20787;-74
2021/06/06 09:00:49;;;;;;;5.97;2.90;;;18.70;81.50;;;;;;5100425;27;20508;-74
2021/06/06 09:03:22;;;;;;;4.72;2.72;;;18.80;80.60;;;;;;5100015;27;20452;-73
2021/06/06 09:05:48;;;;;;;6.83;2.60;;;18.90;80.20;;;;;;5104994;28;20426;-74
2021/06/06 09:08:20;;;;;;;4.72;2.60;;;19.00;80.50;;;;;;5102814;28;20420;-73
2021/06/06 09:10:53;;;;;;;5.18;2.35;;;19.00;80.00;;;;;;5104740;28;20432;-73
2021/06/06 09:13:23;;;;;;;4.72;2.00;;;19.10;79.10;;;;;;5099764;28;20432;-74
2021/06/06 09:15:51;;;;;;;4.40;2.40;;;19.20;77.50;;;;;;5105097;28;20436;-73
2021/06/06 09:18:21;;;;;;;4.47;2.30;;;19.30;78.00;;;;;;5096656;28;20419;-72
2021/06/06 09:20:49;;;;;;;5.22;2.20;;;19.40;79.30;;;;;;5101457;28;20425;-72
2021/06/06 09:23:22;;;;;;;3.70;1.97;;;19.40;78.00;;;;;;5100724;28;20432;-73
2021/06/06 09:26:01;;;;;;;4.47;2.05;;;19.50;77.30;;;;;;5102412;28;20473;-75
2021/06/06 09:28:32;;;;;;;4.13;2.00;;;19.50;76.10;;;;;;5093305;28;22518;-75
2021/06/06 09:31:05;;;;;;;5.15;2.08;;;19.60;77.00;;;;;;5099187;28;20439;-75
2021/06/06 09:33:36;;;;;;;5.03;2.03;;;19.70;76.00;;;;;;5098640;28;20957;-75
2021/06/06 09:36:05;;;;;;;6.57;1.90;;;19.70;75.50;;;;;;5102276;28;20416;-75
2021/06/06 09:38:36;;;;;;;4.30;1.90;;;19.80;75.90;;;;;;5102044;28;20431;-75
2021/06/06 09:41:22;;;;;;;6.15;2.17;;;19.90;74.70;;;;;;5102523;28;20469;-73
2021/06/06 09:44:05;;;;;;;4.88;2.00;;;19.90;73.90;;;;;;5099173;28;20657;-74
2021/06/06 09:46:36;;;;;;;6.00;2.03;;;20.00;74.10;;;;;;5102800;28;20430;-73
2021/06/06 09:49:10;;;;;;;5.35;2.00;;;20.10;74.20;;;;;;5102503;28;20436;-76
2021/06/06 09:51:39;;;;;;;5.22;1.77;;;20.20;73.00;;;;;;5103370;28;20412;-76
2021/06/06 09:54:11;;;;;;;4.55;1.70;;;20.20;73.10;;;;;;5101713;28;21392;-77
2021/06/06 09:56:39;;;;;;;7.38;2.10;;;20.30;71.80;;;;;;5099582;28;20426;-75
2021/06/06 09:59:11;;;;;;;6.03;2.08;;;20.30;71.70;;;;;;5102130;28;20509;-75
2021/06/06 10:01:50;;;;;;;6.40;2.10;;;20.40;72.20;;;;;;5097424;28;20420;-74
2021/06/06 10:04:24;;;;;;;5.03;2.25;;;20.50;72.60;;;;;;5110263;28;20424;-74
2021/06/06 10:06:52;;;;;;;5.00;1.90;;;20.60;72.00;;;;;;5103802;28;20420;-76
2021/06/06 10:09:30;;;;;;;7.97;1.83;;;20.60;71.30;;;;;;5104919;28;21262;-73
2021/06/06 10:12:04;;;;;;;6.03;2.13;;;20.70;70.30;;;;;;5104248;28;20422;-73
2021/06/06 10:14:35;;;;;;;4.30;1.98;;;20.80;70.60;;;;;;5106428;28;20649;-74
2021/06/06 10:17:06;;;;;;;5.50;1.85;;;20.80;70.30;;;;;;5106410;28;20625;-73
2021/06/06 10:19:36;;;;;;;7.32;2.00;;;20.80;70.70;;;;;;5102909;28;20457;-73
2021/06/06 10:22:07;;;;;;;8.38;2.28;;;20.90;70.50;;;;;;5104322;28;20907;-74
2021/06/06 10:24:39;;;;;;;6.18;2.33;;;21.00;70.60;;;;;;5104182;28;20434;-76
2021/06/06 10:27:11;;;;;;;4.82;2.20;;;21.10;72.20;;;;;;5101194;28;20978;-74
2021/06/06 10:29:42;;;;;;;8.53;2.03;;;21.20;70.60;;;;;;5104533;28;20454;-73
2021/06/06 10:32:15;;;;;;;4.97;1.92;;;21.20;70.60;;;;;;5100644;28;20515;-74
2021/06/06 10:34:48;;;;;;;4.65;1.95;;;21.30;70.30;;;;;;5104363;28;20446;-75
2021/06/06 10:37:14;;;;;;;4.25;2.30;;;21.30;69.30;;;;;;5105258;28;20808;-75
2021/06/06 10:39:44;;;;;;;5.47;2.20;;;21.40;69.80;;;;;;5107364;28;20435;-73
2021/06/06 10:42:14;;;;;;;5.25;2.20;;;21.40;69.00;;;;;;5105756;28;20452;-74
2021/06/06 10:44:52;;;;;;;4.05;1.92;;;21.50;68.40;;;;;;5101822;28;20432;-74
2021/06/06 10:47:24;;;;;;;6.15;2.10;;;21.60;71.10;;;;;;5106508;28;20802;-74
2021/06/06 10:49:54;;;;;;;6.68;2.00;;;21.70;69.40;;;;;;5103722;28;20923;-74
2021/06/06 10:52:25;;;;;;;3.13;1.70;;;21.80;67.90;;;;;;5106154;28;20420;-76
2021/06/06 10:54:55;;;;;;;3.92;1.90;;;21.90;68.40;;;;;;5109247;27;20459;-75
2021/06/06 10:57:36;;;;;;;6.18;1.88;;;21.90;68.00;;;;;;5109664;27;20427;-75
2021/06/06 11:00:23;;;;;;;4.47;1.75;;;22.10;68.00;;;;;;5108071;27;20438;-75
2021/06/06 11:03:00;;;;;;;3.63;1.60;;;22.20;66.60;;;;;;5108717;27;20419;-75
2021/06/06 11:05:45;;;;;;;6.82;1.98;;;22.30;64.80;;;;;;5111255;27;20430;-77
2021/06/06 11:08:20;;;;;;;4.90;1.73;;;22.40;67.40;;;;;;5110527;27;20950;-77
2021/06/06 11:10:47;;;;;;;5.22;1.77;;;22.50;67.40;;;;;;5107350;28;20950;-75
2021/06/06 11:13:30;;;;;;;4.30;1.75;;;22.60;66.40;;;;;;5108105;27;20436;-76
2021/06/06 11:15:58;;;;;;;4.07;1.97;;;22.70;64.60;;;;;;5105670;27;20449;-76
2021/06/06 11:18:27;;;;;;;7.00;1.90;;;22.90;65.90;;;;;;5109756;28;20447;-78
2021/06/06 11:20:59;;;;;;;7.00;2.20;;;23.00;65.50;;;;;;5106920;27;21888;-75
2021/06/06 11:23:35;;;;;;;6.72;2.10;;;23.10;65.60;;;;;;5137198;27;20415;-77
2021/06/06 11:26:15;;;;;;;4.90;1.70;;;23.20;64.90;;;;;;5105978;27;20912;-75
2021/06/06 11:28:43;;;;;;;3.27;1.80;;;23.30;64.00;;;;;;5101570;27;20431;-76
2021/06/06 11:31:22;;;;;;;4.70;1.77;;;23.40;60.20;;;;;;5108854;28;20780;-74
2021/06/06 11:33:59;;;;;;;4.47;2.00;;;23.50;60.10;;;;;;5112266;28;20420;-75
2021/06/06 11:36:31;;;;;;;5.60;2.10;;;23.60;60.50;;;;;;5112628;28;20438;-75
2021/06/06 11:39:12;;;;;;;5.78;2.58;;;23.60;61.30;;;;;;5111717;28;20421;-76
2021/06/06 11:41:43;;;;;;;5.10;2.63;;;23.70;60.30;;;;;;5112295;28;20826;-75
2021/06/06 11:44:27;;;;;;;3.90;1.50;;;23.70;56.40;;;;;;5108649;27;20420;-76
2021/06/06 11:46:57;;;;;;;6.15;1.90;;;23.80;54.70;;;;;;5110048;27;20424;-74
2021/06/06 11:49:39;;;;;;;4.35;1.50;;;23.80;55.50;;;;;;5111217;27;20428;-76
2021/06/06 11:52:12;;;;;;;5.05;1.60;;;23.90;57.50;;;;;;5112157;28;20480;-74
2021/06/06 11:54:48;;;;;;;3.42;1.50;;;24.00;56.60;;;;;;5112848;28;20408;-76
2021/06/06 11:57:21;;;;;;;5.38;1.70;;;24.10;57.20;;;;;;5108049;28;20435;-75
2021/06/06 11:59:53;;;;;;;3.72;1.60;;;24.30;56.00;;;;;;5108452;28;20427;-75
2021/06/06 12:02:22;;;;;;;8.53;1.93;;;24.40;55.00;;;;;;5110291;28;20523;-75
2021/06/06 12:04:51;;;;;;;4.80;1.70;;;24.50;56.80;;;;;;5111160;28;20439;-75
2021/06/06 12:07:20;;;;;;;4.47;1.40;;;24.50;54.80;;;;;;5111139;28;20432;-75
2021/06/06 12:09:49;;;;;;;4.32;1.40;;;24.60;51.10;;;;;;5110216;27;20554;-75
2021/06/06 12:12:22;;;;;;;4.45;1.73;;;24.70;51.80;;;;;;5111555;28;20424;-76
2021/06/06 12:15:00;;;;;;;4.65;1.70;;;24.80;52.50;;;;;;5113099;28;20477;-76
2021/06/06 12:17:28;;;;;;;5.65;1.90;;;24.90;52.70;;;;;;5108877;28;20416;-76
2021/06/06 12:19:58;;;;;;;4.40;2.10;;;24.90;54.40;;;;;;5105457;27;20420;-76
2021/06/06 12:22:29;;;;;;;6.45;2.42;;;25.00;53.70;;;;;;5110974;27;22757;-75
2021/06/06 12:25:01;;;;;;;4.32;2.08;;;25.10;54.20;;;;;;5107073;27;20474;-75
2021/06/06 12:27:30;;;;;;;5.05;1.80;;;25.20;55.10;;;;;;5107889;27;20933;-76
2021/06/06 12:29:59;;;;;;;6.60;2.22;;;25.30;55.00;;;;;;5109821;28;20427;-76
2021/06/06 12:32:30;;;;;;;6.05;1.90;;;25.40;54.00;;;;;;5109786;27;20425;-75
2021/06/06 12:35:05;;;;;;;5.97;1.98;;;25.50;55.20;;;;;;5106548;28;20444;-77
2021/06/06 12:37:32;;;;;;;5.55;2.05;;;25.60;54.60;;;;;;5107659;27;20928;-75
2021/06/06 12:40:01;;;;;;;8.38;2.42;;;25.80;54.60;;;;;;5113650;27;20872;-76
2021/06/06 12:42:29;;;;;;;8.98;2.72;;;25.90;54.90;;;;;;5110590;27;20802;-76
2021/06/06 12:45:03;;;;;;;7.00;2.40;;;26.00;54.30;;;;;;5112662;27;20431;-75
2021/06/06 12:47:33;;;;;;;5.88;2.22;;;26.20;53.50;;;;;;5110233;28;20436;-76
2021/06/06 12:50:04;;;;;;;9.15;2.60;;;26.40;52.10;;;;;;5112291;28;20970;-76
2021/06/06 12:52:33;;;;;;;5.28;2.17;;;26.40;52.30;;;;;;5111482;28;20505;-76
2021/06/06 12:55:23;;;;;;;4.75;2.08;;;26.30;52.40;;;;;;5113274;28;20412;-77
2021/06/06 12:57:52;;;;;;;4.60;1.93;;;26.40;51.70;;;;;;5110223;28;20421;-77
2021/06/06 13:00:24;;;;;;;7.03;2.10;;;26.50;52.60;;;;;;5110474;27;20471;-76